Pagina principale
METAR-TAF:

METAR-TAF

Aeroporti :

Sabadell, Spagna

latitudine: 41-31N, longitudine: 002-06E, altezza: 250 m

Osservazione

Il bollettino è stato emesso 26 minuti fa, alle 22:30 UTC
Vento 5 kt da ovest
Temperature 17°C
Umidità 72%
Pressione 1018 hPa
Visibilità 10 km o più

METAR: LELL 162230Z AUTO 28005KT 9999 NCD 17/12 Q1018

Ora: 00:56 (22:56 UTC)

Previsione

Il bollettino è stato emesso 8 ore e 56 minuti fa, alle 14:00 UTC
Previsione valida dal 16 alle 15 UTC al 17 alle 15 UTC
Vento 9 kt da sud
Visibilità 10 km o più
nessuna nube inferiore a 1500 m e nessun cumulonembo
Evoluzione graduale
dal 16 alle 18 UTC al 16 alle 21 UTC
Vento 3 kt da direzioni variabili
Evoluzione graduale
dal 17 alle 11 UTC al 17 alle 13 UTC
Vento 10 kt da sud

TAF: LELL 161400Z 1615/1715 19009KT CAVOK TX31/1713Z TN14/1705Z BECMG 1618/1621 VRB03KT BECMG 1711/1713 19010KT

Osservazioni e previsioni meteorologiche di più di 4000 aeroporti (messaggi METAR e TAF).

Le stazioni disponibili sono rappresentate dai dischi gialli e rossi sulla carta.

Puntare il mouse per vedere il nome della stazione.

Clicca sopra per visualizzare le osservazioni e previsioni meteorologiche.

Per cambiare la mappa : fare clic sui pulsanti verdi con una croce nera per ingrandire, il pulsante verde con un trattino per diminuire, o sulla freccia verde per le mappe adiacenti.


METAR-TAF: